KABQ/ABQ METAR and TAF weather

Enter ICAO airport designator
Station Type Date Time Source
KABQ METAR 2024/04/17 17:52 UTC NOAA

KABQ 171752Z 00000KT 10SM CLR 19/M04 A3011 RMK AO2 SLP137 T01941044 10194 20056 58007


Station Type Date Time Source
KABQ Decoded METAR 2024/04/17 17:52 UTC NOAA

ALBUQUERQUE INTERNATIONAL AIRPORT, NM, United States (KABQ) 35-02N 106-36W 1618M
Apr 17, 2024 - 01:52 PM EDT / 2024.04.17 1752 UTC
Wind: Calm:0
Visibility: 10 mile(s):0
Sky conditions: clear
Temperature: 66.9 F (19.4 C)
Dew Point: 24.1 F (-4.4 C)
Relative Humidity: 19%
Pressure (altimeter): 30.11 in. Hg (1019 hPa)
Pressure tendency: 0.02 inches (0.7 hPa) lower than three hours ago
ob: KABQ 171752Z 00000KT 10SM CLR 19/M04 A3011 RMK AO2 SLP137 T01941044 10194 20056 58007
cycle: 18

Station Type Date Time Source
KABQ TAF 2024/04/17 18:36 UTC NOAA